Terminal Aerodrome Forecast
Issued by NWS Louisville, KY

Home | Current Version | Previous Version | Text Only | Print | Product List | Glossary On
Versions: 1 2 3 4 5 6 7 8 9 10 11 12 13 14 15 16
000
FTUS43 KLMK 241126
TAFLEX
TAF
KLEX 241126Z 2412/2512 19013G18KT P6SM FEW250
     FM241300 19015G20KT P6SM BKN030
     FM241700 20016G24KT P6SM BKN040
     FM250000 19009KT P6SM BKN100=

USA.gov is the U.S. government's official web portal to all federal, state and local government web resources and services.